createdAt,value
2023-07-01T00:00:05.930Z,4.724832214765101
2023-07-01T00:03:53.781Z,4.543624161073826
2023-07-01T00:07:31.145Z,4.308724832214765
2023-07-01T00:11:17.040Z,4.073825503355705
2023-07-01T00:14:57.315Z,4.308724832214765
2023-07-01T00:18:49.746Z,3.9395973154362416
2023-07-01T00:23:01.871Z,4.348993288590604
2023-07-01T00:26:41.523Z,4.469798657718121
2023-07-01T00:30:17.672Z,4.7114093959731544
2023-07-01T00:33:54.171Z,4.731543624161074
2023-07-01T00:37:36.068Z,4.510067114093959
2023-07-01T00:41:20.224Z,4.328859060402684
2023-07-01T00:44:57.274Z,3.966442953020134
2023-07-01T00:48:31.652Z,4.167785234899329
2023-07-01T00:52:06.553Z,5.0
2023-07-01T00:55:48.468Z,5.046979865771812
2023-07-01T00:59:19.548Z,4.597315436241611
2023-07-01T01:02:50.893Z,4.590604026845638
2023-07-01T01:06:21.052Z,4.389261744966443
2023-07-01T01:09:49.447Z,4.7114093959731544
2023-07-01T01:16:05.291Z,5.342281879194631
2023-07-01T01:19:40.811Z,4.3624161073825505
2023-07-01T01:23:16.568Z,5.174496644295302
2023-07-01T01:27:09.030Z,5.134228187919463
2023-07-01T01:30:44.889Z,5.677852348993288
2023-07-01T01:34:19.834Z,5.8120805369127515
2023-07-01T01:37:54.242Z,5.315436241610739
2023-07-01T01:41:26.760Z,6.409395973154362
2023-07-01T01:45:01.475Z,6.275167785234899
2023-07-01T01:48:35.109Z,6.201342281879195
2023-07-01T01:52:10.097Z,6.510067114093959
2023-07-01T01:55:45.718Z,6.865771812080537
2023-07-01T01:59:57.815Z,6.248322147651007
2023-07-01T02:03:26.370Z,6.154362416107382
2023-07-01T02:07:08.736Z,6.496644295302014
2023-07-01T02:10:42.060Z,6.697986577181208
2023-07-01T02:14:19.129Z,6.583892617449664
2023-07-01T02:17:53.251Z,7.067114093959732
2023-07-01T02:21:46.155Z,6.677852348993288
2023-07-01T02:25:31.595Z,6.899328859060403
2023-07-01T02:29:01.560Z,7.577181208053691
2023-07-01T02:32:39.671Z,7.906040268456376
2023-07-01T02:39:06.066Z,8.0
2023-07-01T02:42:35.488Z,8.288590604026846
2023-07-01T02:47:07.039Z,7.932885906040268
2023-07-01T02:50:46.815Z,8.053691275167786
2023-07-01T02:54:23.785Z,9.013422818791947
2023-07-01T02:57:52.381Z,9.456375838926174
2023-07-01T03:01:34.708Z,8.832214765100671
2023-07-01T03:05:11.908Z,8.718120805369127
2023-07-01T03:08:47.119Z,9.885906040268456
2023-07-01T03:12:17.378Z,10.395973154362416
2023-07-01T03:15:46.131Z,9.798657718120806
2023-07-01T03:19:13.851Z,9.812080536912752
2023-07-01T03:22:46.301Z,10.295302013422818
2023-07-01T03:26:15.392Z,9.791946308724832
2023-07-01T03:30:13.794Z,9.657718120805368
2023-07-01T03:33:49.831Z,10.516778523489933
2023-07-01T03:37:21.101Z,10.234899328859061
2023-07-01T03:43:32.344Z,10.04026845637584
2023-07-01T03:47:08.737Z,10.060402684563758
2023-07-01T03:53:37.073Z,10.516778523489933
2023-07-01T03:57:04.529Z,11.483221476510067
2023-07-01T04:00:36.917Z,11.25503355704698
2023-07-01T04:04:06.398Z,11.516778523489933
2023-07-01T04:07:41.951Z,10.463087248322148
2023-07-01T04:12:06.028Z,11.449664429530202
2023-07-01T04:15:32.688Z,11.36241610738255
2023-07-01T04:19:04.752Z,11.906040268456376
2023-07-01T04:22:40.499Z,11.046979865771812
2023-07-01T04:26:15.547Z,10.859060402684564
2023-07-01T04:30:53.075Z,11.61744966442953
2023-07-01T04:34:27.777Z,12.63758389261745
2023-07-01T04:38:03.429Z,11.25503355704698
2023-07-01T04:41:38.720Z,11.751677852348994
2023-07-01T04:45:13.433Z,12.375838926174497
2023-07-01T04:49:25.536Z,12.78523489932886
2023-07-01T04:53:00.376Z,12.543624161073826
2023-07-01T04:56:35.019Z,13.25503355704698
2023-07-01T05:01:46.786Z,12.812080536912752
2023-07-01T05:05:21.932Z,13.302013422818792
2023-07-01T05:08:57.697Z,13.194630872483222
2023-07-01T05:12:33.501Z,12.315436241610739
2023-07-01T05:16:12.867Z,12.395973154362416
2023-07-01T05:19:47.318Z,12.335570469798657
2023-07-01T05:23:16.923Z,12.12751677852349
2023-07-01T05:35:05.851Z,11.36241610738255
2023-07-01T05:38:42.513Z,11.167785234899329
2023-07-01T05:42:17.852Z,11.026845637583893
2023-07-01T05:45:54.851Z,10.697986577181208
2023-07-01T05:49:31.748Z,10.939597315436242
2023-07-01T05:53:07.319Z,10.885906040268456
2023-07-01T05:56:41.236Z,10.825503355704697
2023-07-01T06:00:21.278Z,11.033557046979865
2023-07-01T06:03:56.281Z,10.026845637583893
2023-07-01T06:07:31.400Z,9.281879194630873
2023-07-01T06:11:09.082Z,10.248322147651006
2023-07-01T06:15:00.893Z,11.194630872483222
2023-07-01T06:19:30.655Z,9.570469798657719
2023-07-01T06:26:47.200Z,9.14765100671141
2023-07-01T06:30:38.191Z,9.194630872483222
2023-07-01T06:34:49.236Z,10.48993288590604
2023-07-01T06:39:00.855Z,8.765100671140939
2023-07-01T06:42:45.776Z,8.711409395973154
2023-07-01T06:47:01.517Z,8.369127516778523
2023-07-01T06:56:48.954Z,15.664429530201343
2023-07-01T07:00:35.037Z,9.436241610738255
2023-07-01T07:04:24.534Z,8.711409395973154
2023-07-01T07:08:07.766Z,8.21476510067114
2023-07-01T07:11:44.479Z,8.671140939597315
2023-07-01T07:15:19.908Z,9.14765100671141
2023-07-01T07:18:56.852Z,8.671140939597315
2023-07-01T07:22:32.530Z,9.154362416107382
2023-07-01T07:26:10.082Z,8.328859060402685
2023-07-01T07:29:46.181Z,8.771812080536913
2023-07-01T07:33:39.118Z,9.369127516778523
2023-07-01T07:37:23.997Z,8.691275167785236
2023-07-01T07:44:45.029Z,8.85234899328859
2023-07-01T07:48:16.614Z,9.12751677852349
2023-07-01T07:54:34.253Z,9.516778523489933
2023-07-01T07:59:09.428Z,8.87248322147651
2023-07-01T08:02:56.803Z,9.234899328859061
2023-07-01T08:06:42.971Z,8.986577181208053
2023-07-01T08:10:53.957Z,9.241610738255034
2023-07-01T08:14:45.638Z,9.14765100671141
2023-07-01T08:18:17.936Z,8.758389261744966
2023-07-01T08:25:14.935Z,8.020134228187919
2023-07-01T08:28:56.868Z,8.966442953020135
2023-07-01T08:32:36.020Z,8.543624161073826
2023-07-01T08:36:14.125Z,9.758389261744966
2023-07-01T08:39:54.027Z,9.791946308724832
2023-07-01T08:43:35.308Z,10.201342281879194
2023-07-01T08:52:24.501Z,9.919463087248323
2023-07-01T08:57:59.881Z,10.476510067114093
2023-07-01T09:02:35.883Z,10.879194630872483
2023-07-01T09:06:12.375Z,9.342281879194632
2023-07-01T09:09:54.569Z,8.718120805369127
2023-07-01T09:13:33.382Z,8.879194630872483
2023-07-01T09:17:12.386Z,9.409395973154362
2023-07-01T09:20:51.455Z,9.718120805369127
2023-07-01T09:24:30.889Z,9.825503355704697
2023-07-01T09:28:08.356Z,9.731543624161073
2023-07-01T09:31:46.519Z,9.798657718120806
2023-07-01T09:45:09.561Z,9.234899328859061
2023-07-01T09:48:46.972Z,9.503355704697986
2023-07-01T09:53:51.826Z,8.221476510067115
2023-07-01T09:57:32.987Z,8.21476510067114
2023-07-01T10:01:09.787Z,7.758389261744966
2023-07-01T10:04:46.297Z,8.503355704697986
2023-07-01T10:08:22.525Z,8.375838926174497
2023-07-01T10:11:59.549Z,7.906040268456376
2023-07-01T10:15:36.201Z,7.832214765100671
2023-07-01T10:19:12.453Z,7.76510067114094
2023-07-01T10:22:48.790Z,7.087248322147651
2023-07-01T10:26:24.706Z,6.261744966442953
2023-07-01T10:35:18.161Z,6.3624161073825505
2023-07-01T10:38:54.634Z,5.281879194630872
2023-07-01T10:42:31.851Z,5.825503355704698
2023-07-01T10:46:07.496Z,6.442953020134228
2023-07-01T10:49:43.565Z,6.496644295302014
2023-07-01T10:53:18.964Z,6.134228187919463
2023-07-01T10:56:54.971Z,6.785234899328859
2023-07-01T11:00:31.144Z,7.1610738255033555
2023-07-01T11:08:47.195Z,6.724832214765101
2023-07-01T11:12:22.789Z,7.060402684563758
2023-07-01T11:23:20.113Z,5.261744966442953
2023-07-01T11:26:56.474Z,5.758389261744966
2023-07-01T11:30:32.527Z,5.1610738255033555
2023-07-01T11:34:07.690Z,6.402684563758389
2023-07-01T11:37:43.613Z,6.3355704697986575
2023-07-01T11:41:19.098Z,6.577181208053691
2023-07-01T11:44:55.656Z,6.395973154362416
2023-07-01T11:48:32.288Z,6.060402684563758
2023-07-01T11:52:09.977Z,5.315436241610739
2023-07-01T11:56:40.876Z,5.993288590604027
2023-07-01T12:00:16.731Z,5.89261744966443
2023-07-01T12:03:52.842Z,5.557046979865772
2023-07-01T12:14:02.370Z,6.3355704697986575
2023-07-01T12:17:41.750Z,6.604026845637584
2023-07-01T12:21:17.075Z,7.093959731543624
2023-07-01T12:25:25.231Z,7.530201342281879
2023-07-01T12:29:03.357Z,7.040268456375839
2023-07-01T12:32:38.867Z,6.1879194630872485
2023-07-01T12:36:13.759Z,7.0
2023-07-01T12:43:09.348Z,6.778523489932886
2023-07-01T12:47:57.941Z,7.228187919463087
2023-07-01T12:52:21.705Z,6.604026845637584
2023-07-01T12:55:58.771Z,6.429530201342282
2023-07-01T12:59:34.798Z,6.724832214765101
2023-07-01T13:03:10.975Z,6.818791946308725
2023-07-01T13:06:47.085Z,6.214765100671141
2023-07-01T13:10:22.788Z,6.140939597315437
2023-07-01T13:13:58.647Z,5.1610738255033555
2023-07-01T13:18:22.850Z,5.147651006711409
2023-07-01T13:22:16.667Z,4.89261744966443
2023-07-01T13:25:52.260Z,4.617449664429531
2023-07-01T13:29:28.274Z,5.7114093959731544
2023-07-01T13:33:04.301Z,4.912751677852349
2023-07-01T13:36:39.870Z,5.140939597315437
2023-07-01T13:40:15.598Z,5.402684563758389
2023-07-01T13:43:51.773Z,5.416107382550336
2023-07-01T13:47:27.413Z,5.731543624161074
2023-07-01T13:51:03.419Z,5.651006711409396
2023-07-01T13:57:07.677Z,5.832214765100671
2023-07-01T14:01:12.960Z,5.617449664429531
2023-07-01T14:04:48.596Z,6.0
2023-07-01T14:08:23.045Z,5.9865771812080535
2023-07-01T14:11:58.301Z,7.174496644295302
2023-07-01T14:15:33.636Z,6.342281879194631
2023-07-01T14:19:07.855Z,6.9865771812080535
2023-07-01T14:22:42.486Z,7.194630872483222
2023-07-01T14:26:16.844Z,7.798657718120805
2023-07-01T14:29:52.998Z,7.167785234899329
2023-07-01T14:33:28.837Z,7.3355704697986575
2023-07-01T14:37:05.395Z,6.530201342281879
2023-07-01T14:41:37.880Z,6.677852348993288
2023-07-01T14:45:11.305Z,6.97986577181208
2023-07-01T14:48:45.596Z,6.89261744966443
2023-07-01T14:54:58.250Z,7.348993288590604
2023-07-01T14:58:31.693Z,7.442953020134228
2023-07-01T15:02:05.046Z,7.026845637583893
2023-07-01T15:05:38.342Z,7.295302013422819
2023-07-01T15:09:17.280Z,6.382550335570469
2023-07-01T15:12:51.621Z,7.046979865771812
2023-07-01T15:16:26.468Z,7.033557046979865
2023-07-01T15:20:01.218Z,7.704697986577181
2023-07-01T15:34:49.611Z,8.10738255033557
2023-07-01T15:38:23.593Z,8.979865771812081
2023-07-01T15:44:38.900Z,9.724832214765101
2023-07-01T15:48:13.617Z,9.275167785234899
2023-07-01T15:51:49.519Z,8.812080536912752
2023-07-01T16:05:05.237Z,9.429530201342281
2023-07-01T16:08:41.235Z,9.93288590604027
2023-07-01T16:12:16.749Z,12.697986577181208
2023-07-01T16:15:52.601Z,15.134228187919463
2023-07-01T16:19:27.969Z,11.630872483221477
2023-07-01T16:24:42.604Z,11.080536912751677
2023-07-01T16:28:17.386Z,10.288590604026846
2023-07-01T16:31:53.709Z,8.375838926174497
2023-07-01T16:37:42.323Z,7.442953020134228
2023-07-01T16:44:28.940Z,6.973154362416107
2023-07-01T16:49:23.306Z,6.140939597315437
2023-07-01T16:54:13.500Z,6.651006711409396
2023-07-01T17:02:09.910Z,6.080536912751678
2023-07-01T17:06:57.525Z,6.369127516778524
2023-07-01T17:11:50.467Z,6.154362416107382
2023-07-01T17:18:39.763Z,6.449664429530201
2023-07-01T17:23:26.887Z,6.9865771812080535
2023-07-01T17:28:11.730Z,7.751677852348993
2023-07-01T17:32:50.976Z,9.798657718120806
2023-07-01T17:37:44.677Z,9.322147651006711
2023-07-01T17:42:19.943Z,9.046979865771812
2023-07-01T17:47:03.026Z,7.416107382550336
2023-07-01T17:51:36.280Z,6.201342281879195
2023-07-01T17:56:13.494Z,5.308724832214765
2023-07-01T18:00:52.591Z,5.74496644295302
2023-07-01T18:07:54.958Z,5.080536912751678
2023-07-01T18:12:33.175Z,5.241610738255034
2023-07-01T18:16:53.746Z,5.194630872483222
2023-07-01T18:21:30.390Z,5.9865771812080535
2023-07-01T18:25:49.419Z,5.248322147651007
2023-07-01T18:31:38.967Z,6.684563758389261
2023-07-01T18:36:39.672Z,6.583892617449664
2023-07-01T18:40:53.692Z,6.422818791946309
2023-07-01T18:45:00.501Z,6.503355704697986
2023-07-01T18:48:46.919Z,6.375838926174497
2023-07-01T18:53:06.601Z,6.402684563758389
2023-07-01T18:56:44.600Z,6.483221476510067
2023-07-01T19:00:21.153Z,7.12751677852349
2023-07-01T19:03:57.620Z,7.228187919463087
2023-07-01T19:07:34.069Z,6.1879194630872485
2023-07-01T19:11:10.730Z,6.281879194630872
2023-07-01T19:24:12.318Z,6.080536912751678
2023-07-01T19:27:48.410Z,5.758389261744966
2023-07-01T19:31:24.019Z,4.550335570469799
2023-07-01T19:35:00.109Z,4.436241610738255
2023-07-01T19:38:36.950Z,5.959731543624161
2023-07-01T19:42:12.953Z,4.973154362416107
2023-07-01T19:46:32.145Z,4.9865771812080535
2023-07-01T19:50:08.206Z,4.1879194630872485
2023-07-01T19:53:56.006Z,4.248322147651007
2023-07-01T19:57:37.610Z,3.7315436241610738
2023-07-01T20:01:14.603Z,4.597315436241611
2023-07-01T20:05:23.836Z,4.523489932885906
2023-07-01T20:08:59.879Z,4.402684563758389
2023-07-01T20:12:36.697Z,4.570469798657718
2023-07-01T20:16:11.961Z,4.067114093959732
2023-07-01T20:23:55.773Z,4.503355704697986
2023-07-01T20:28:40.969Z,4.248322147651007
2023-07-01T20:35:03.912Z,4.2885906040268456
2023-07-01T20:38:39.823Z,4.570469798657718
2023-07-01T20:42:15.228Z,4.120805369127517
2023-07-01T20:45:50.748Z,4.718120805369128
2023-07-01T20:49:25.735Z,4.134228187919463
2023-07-01T20:53:01.422Z,4.208053691275167
2023-07-01T21:00:08.912Z,4.76510067114094
2023-07-01T21:03:44.285Z,3.3758389261744965
2023-07-01T21:07:19.412Z,3.8187919463087248
2023-07-01T21:10:55.352Z,3.738255033557047
2023-07-01T21:15:22.751Z,3.1812080536912752
2023-07-01T21:24:05.109Z,2.7986577181208054
2023-07-01T21:27:41.042Z,2.476510067114094
2023-07-01T21:31:16.943Z,3.228187919463087
2023-07-01T21:34:53.628Z,3.2348993288590604
2023-07-01T21:39:55.535Z,2.684563758389262
2023-07-01T21:44:11.804Z,2.8053691275167787
2023-07-01T21:48:54.638Z,2.751677852348993
2023-07-01T21:54:00.554Z,2.8322147651006713
2023-07-01T21:59:20.381Z,3.140939597315436
2023-07-01T22:03:05.551Z,3.3691275167785233
2023-07-01T22:08:08.713Z,3.959731543624161
2023-07-01T22:11:47.767Z,5.328859060402684
2023-07-01T22:15:23.394Z,4.134228187919463
2023-07-01T22:19:18.122Z,3.6375838926174495
2023-07-01T22:22:54.637Z,3.778523489932886
2023-07-01T22:27:51.011Z,3.778523489932886
2023-07-01T22:31:25.895Z,3.0268456375838926
2023-07-01T22:35:01.446Z,3.2684563758389262
2023-07-01T22:38:37.637Z,2.6040268456375837
2023-07-01T22:42:13.298Z,2.9194630872483223
2023-07-01T22:45:49.225Z,2.8187919463087248
2023-07-01T22:49:24.410Z,3.134228187919463
2023-07-01T22:52:59.939Z,3.664429530201342
2023-07-01T22:58:52.335Z,2.664429530201342
2023-07-01T23:03:14.957Z,2.7583892617449663
2023-07-01T23:07:31.928Z,3.053691275167785
2023-07-01T23:11:07.905Z,2.859060402684564
2023-07-01T23:14:46.853Z,3.0671140939597317
2023-07-01T23:18:22.796Z,2.9261744966442955
2023-07-01T23:21:59.154Z,2.879194630872483
2023-07-01T23:25:34.755Z,2.9261744966442955
2023-07-01T23:29:10.160Z,3.4295302013422817
2023-07-01T23:34:20.836Z,2.825503355704698
2023-07-01T23:37:57.135Z,3.0201342281879193
2023-07-01T23:42:45.276Z,2.9328859060402683
2023-07-01T23:46:20.003Z,3.3557046979865772
2023-07-01T23:49:56.011Z,3.610738255033557
2023-07-01T23:55:41.295Z,2.8523489932885906
2023-07-01T23:59:15.650Z,4.02013422818792
